Almond, NY

12:24 PM EST on February 14, 2016 (GMT -0500)
Ardachy Farm | | Change Station
CLOSE
Current Station
Personal Weather Station
Location: Alfred Station, NY
Elevation: 1877 ft
Nearby Weather Stations

Elev 1877 ft 42.28 °N, 77.77 °W | Updated 16 seconds ago

Clear
Clear
8.4 °F
Feels Like 8 °F
N
0.0
Wind Variable Wind from North
Gusts 0.0 mph

Today
High -- | Low -- °F
--% Chance of Precip.
Yesterday
High -- | Low -- °F
Precip. -- in
Pressure 30.52 in
Visibility 10.0 miles
Clouds Clear
Windchill 8 °F
Dew Point -26 °F
Humidity 18%
Rainfall 0.00 in
Snow Depth Not available.
7:09 AM 5:41 PM
Waxing Crescent, 43% visible
METAR KELZ 141656Z AUTO 32005KT 10SM CLR M17/M24 A3034 RMK AO2 SNE1558 SLP334 P0000 T11721244
Pressure 30.52 in
Visibility 10.0 miles
Clouds Clear
Windchill 8 °F
Dew Point -26 °F
Humidity 18%
Rainfall 0.00 in
Snow Depth Not available.
7:09 AM 5:41 PM
Waxing Crescent, 43% visible
METAR KELZ 141656Z AUTO 32005KT 10SM CLR M17/M24 A3034 RMK AO2 SNE1558 SLP334 P0000 T11721244

10-Day Weather Forecast

Almanac

Astronomy

Feb. 14, 2016 Rise Set
Actual Time
Civil Twilight
Nautical Twilight
Astronomical Twilight
Moon
Length of Visible Light
Length of Day
Tomorrow will be .
, % of the Moon is Illuminated

Today's Extremes

State Highs State Lows

Community

WunderPhotos

Upload Photos

1,892,856 photos uploaded!

WunderBlog® & News

Nearby

Air Quality

  Air Quality AQ Index Pollutant
Not available.

Snow Depth

Station Depth Elevation

Earthquake Activity

City Distance Mag. Time & Date
Minimum magnitude displayed is 2.5.

Coastal Water Temperatures

Place Temperature

Stations

Nearby Weather Stations

Station Location Temp. Windchill Dew Point Humidity Wind Precip. Elev Updated Type
                   

Watches & Warnings

There are currently no watches in effect.